createdAt,value
2022-12-11T00:00:53.688Z,102.13
2022-12-11T00:03:21.047Z,101.88
2022-12-11T00:05:48.009Z,110.32
2022-12-11T00:08:15.018Z,98.78
2022-12-11T00:10:49.546Z,93.80
2022-12-11T00:13:16.578Z,85.20
2022-12-11T00:15:43.466Z,84.50
2022-12-11T00:18:14.689Z,82.05
2022-12-11T00:20:42.337Z,77.32
2022-12-11T00:23:09.284Z,79.63
2022-12-11T00:25:40.637Z,85.30
2022-12-11T00:28:07.517Z,92.80
2022-12-11T00:30:34.504Z,90.57
2022-12-11T00:33:01.554Z,90.18
2022-12-11T00:35:28.435Z,90.55
2022-12-11T00:37:55.383Z,91.78
2022-12-11T00:40:22.392Z,95.20
2022-12-11T00:42:49.436Z,90.90
2022-12-11T00:45:16.508Z,92.45
2022-12-11T00:47:43.419Z,88.95
2022-12-11T00:50:10.367Z,85.95
2022-12-11T00:52:37.321Z,88.43
2022-12-11T00:55:04.864Z,85.85
2022-12-11T00:57:31.765Z,82.68
2022-12-11T00:59:58.675Z,80.15
2022-12-11T01:02:25.666Z,84.38
2022-12-11T01:04:52.604Z,79.93
2022-12-11T01:07:19.548Z,84.03
2022-12-11T01:10:05.603Z,84.05
2022-12-11T01:12:32.644Z,72.47
2022-12-11T01:14:59.579Z,75.40
2022-12-11T01:17:26.488Z,69.60
2022-12-11T01:19:56.588Z,72.70
2022-12-11T01:35:09.226Z,62.80
2022-12-11T01:37:36.554Z,56.35
2022-12-11T01:40:06.284Z,54.15
2022-12-11T01:42:34.250Z,51.85
2022-12-11T01:45:24.671Z,52.53
2022-12-11T01:48:02.522Z,50.20
2022-12-11T01:50:32.030Z,44.03
2022-12-11T01:52:59.259Z,40.10
2022-12-11T01:55:26.755Z,38.50
2022-12-11T01:57:54.599Z,37.05
2022-12-11T02:00:22.751Z,39.80
2022-12-11T02:02:49.785Z,37.22
2022-12-11T02:05:16.893Z,36.13
2022-12-11T02:07:54.933Z,39.05
2022-12-11T02:10:39.124Z,41.10
2022-12-11T02:13:19.000Z,38.25
2022-12-11T02:15:59.069Z,35.13
2022-12-11T02:18:54.850Z,42.00
2022-12-11T02:21:31.804Z,37.47
2022-12-11T02:24:23.335Z,41.03
2022-12-11T02:26:53.135Z,40.83
2022-12-11T02:29:50.245Z,41.00
2022-12-11T02:32:26.323Z,40.53
2022-12-11T02:35:10.059Z,39.00
2022-12-11T02:37:41.167Z,39.35
2022-12-11T02:40:12.786Z,40.13
2022-12-11T02:42:43.927Z,42.03
2022-12-11T02:45:13.680Z,41.85
2022-12-11T02:47:45.504Z,45.30
2022-12-11T02:50:18.160Z,42.83
2022-12-11T02:52:48.337Z,44.25
2022-12-11T02:55:17.147Z,42.67
2022-12-11T02:58:13.717Z,39.83
2022-12-11T03:00:40.984Z,38.15
2022-12-11T03:03:08.144Z,37.05
2022-12-11T03:05:35.804Z,38.78
2022-12-11T03:08:03.779Z,37.45
2022-12-11T03:10:30.896Z,41.55
2022-12-11T03:12:59.973Z,39.72
2022-12-11T03:16:05.644Z,44.33
2022-12-11T03:18:45.170Z,38.70
2022-12-11T03:21:45.710Z,41.13
2022-12-11T03:24:35.188Z,40.10
2022-12-11T03:27:19.828Z,42.63
2022-12-11T03:29:58.067Z,41.58
2022-12-11T03:32:34.776Z,41.92
2022-12-11T03:35:09.903Z,42.78
2022-12-11T03:37:40.618Z,41.72
2022-12-11T03:40:16.627Z,41.03
2022-12-11T03:42:49.071Z,42.17
2022-12-11T03:45:20.839Z,44.47
2022-12-11T03:47:49.951Z,45.78
2022-12-11T03:50:20.268Z,44.70
2022-12-11T03:52:48.916Z,46.60
2022-12-11T03:55:18.730Z,49.08
2022-12-11T03:57:45.901Z,45.70
2022-12-11T04:00:18.205Z,49.58
2022-12-11T04:03:12.636Z,49.25
2022-12-11T04:05:49.620Z,47.92
2022-12-11T04:08:18.505Z,44.28
2022-12-11T04:10:45.439Z,44.03
2022-12-11T04:13:13.104Z,44.33
2022-12-11T04:15:41.249Z,39.50
2022-12-11T04:18:28.392Z,37.42
2022-12-11T04:21:14.891Z,35.05
2022-12-11T04:24:00.487Z,34.90
2022-12-11T04:26:27.941Z,38.33
2022-12-11T04:28:54.979Z,38.78
2022-12-11T04:31:23.188Z,38.25
2022-12-11T04:33:50.457Z,40.38
2022-12-11T04:36:18.017Z,38.28
2022-12-11T04:38:44.959Z,36.35
2022-12-11T04:41:15.091Z,35.45
2022-12-11T04:43:45.279Z,30.60
2022-12-11T04:46:25.707Z,33.92
2022-12-11T04:48:57.249Z,32.10
2022-12-11T04:51:26.043Z,40.85
2022-12-11T05:05:56.660Z,44.20
2022-12-11T05:08:23.626Z,42.92
2022-12-11T05:11:03.320Z,42.60
2022-12-11T05:13:31.243Z,41.75
2022-12-11T05:15:58.886Z,41.72
2022-12-11T05:18:26.439Z,38.08
2022-12-11T05:21:03.999Z,38.53
2022-12-11T05:23:31.640Z,39.80
2022-12-11T05:26:02.547Z,39.85
2022-12-11T05:28:33.991Z,38.60
2022-12-11T05:31:05.581Z,38.05
2022-12-11T05:33:34.213Z,41.17
2022-12-11T05:36:01.467Z,40.88
2022-12-11T05:38:28.432Z,44.10
2022-12-11T05:41:01.855Z,40.95
2022-12-11T05:43:31.386Z,41.80
2022-12-11T05:46:20.234Z,38.50
2022-12-11T05:48:51.967Z,38.67
2022-12-11T05:51:20.059Z,37.55
2022-12-11T05:53:50.286Z,33.00
2022-12-11T05:56:26.239Z,29.10
2022-12-11T05:58:55.071Z,30.00
2022-12-11T06:01:25.223Z,27.52
2022-12-11T06:03:54.371Z,25.70
2022-12-11T06:06:21.487Z,26.10
2022-12-11T06:08:53.583Z,25.52
2022-12-11T06:11:24.092Z,27.17
2022-12-11T06:13:52.714Z,24.80
2022-12-11T06:16:21.079Z,25.48
2022-12-11T06:18:49.149Z,26.70
2022-12-11T06:21:29.955Z,26.55
2022-12-11T06:24:00.462Z,30.52
2022-12-11T06:26:28.703Z,27.50
2022-12-11T06:28:55.722Z,25.15
2022-12-11T06:31:23.079Z,25.35
2022-12-11T06:33:50.163Z,25.45
2022-12-11T06:36:21.021Z,23.00
2022-12-11T06:38:48.336Z,21.38
2022-12-11T06:41:16.087Z,21.95
2022-12-11T06:43:43.928Z,21.85
2022-12-11T06:46:18.064Z,25.33
2022-12-11T06:48:46.147Z,22.95
2022-12-11T06:51:18.448Z,25.13
2022-12-11T06:53:50.845Z,28.48
2022-12-11T06:56:17.783Z,25.67
2022-12-11T06:58:44.811Z,24.98
2022-12-11T07:01:27.295Z,22.45
2022-12-11T07:03:56.660Z,24.48
2022-12-11T07:06:25.719Z,22.52
2022-12-11T07:08:53.152Z,24.17
2022-12-11T07:11:21.605Z,23.52
2022-12-11T07:13:49.025Z,24.67
2022-12-11T07:16:17.917Z,24.50
2022-12-11T07:18:50.529Z,24.98
2022-12-11T07:21:19.287Z,23.05
2022-12-11T07:23:46.742Z,25.30
2022-12-11T07:26:17.916Z,24.27
2022-12-11T07:28:45.789Z,23.70
2022-12-11T07:31:18.147Z,24.52
2022-12-11T07:33:45.603Z,24.05
2022-12-11T07:36:15.385Z,24.70
2022-12-11T07:38:42.556Z,24.67
2022-12-11T07:41:13.687Z,27.50
2022-12-11T07:43:41.806Z,23.27
2022-12-11T07:46:22.491Z,24.80
2022-12-11T07:48:50.326Z,25.13
2022-12-11T07:51:27.697Z,24.60
2022-12-11T07:54:03.917Z,22.85
2022-12-11T07:56:32.554Z,23.75
2022-12-11T07:59:03.129Z,24.23
2022-12-11T08:01:33.415Z,23.08
2022-12-11T08:04:00.587Z,21.98
2022-12-11T08:06:31.371Z,22.15
2022-12-11T08:09:01.066Z,23.63
2022-12-11T08:11:28.278Z,25.45
2022-12-11T08:13:55.846Z,26.52
2022-12-11T08:16:23.152Z,26.05
2022-12-11T08:18:50.159Z,26.33
2022-12-11T08:21:26.413Z,25.73
2022-12-11T08:23:54.664Z,23.73
2022-12-11T08:26:29.757Z,27.15
2022-12-11T08:28:57.775Z,26.38
2022-12-11T08:31:25.937Z,25.48
2022-12-11T08:33:55.643Z,24.88
2022-12-11T08:36:25.421Z,23.85
2022-12-11T08:38:55.038Z,25.05
2022-12-11T08:41:28.403Z,29.10
2022-12-11T08:57:05.936Z,29.77
2022-12-11T08:59:33.113Z,30.77
2022-12-11T09:02:00.028Z,26.67
2022-12-11T09:04:26.965Z,27.23
2022-12-11T09:06:53.896Z,26.80
2022-12-11T09:09:20.847Z,27.55
2022-12-11T09:11:47.889Z,28.42
2022-12-11T09:14:16.282Z,34.15
2022-12-11T09:16:43.383Z,27.08
2022-12-11T09:19:14.528Z,26.08
2022-12-11T09:21:44.196Z,29.02
2022-12-11T09:24:12.996Z,28.85
2022-12-11T09:26:40.689Z,30.70
2022-12-11T09:29:08.020Z,30.23
2022-12-11T09:31:37.181Z,31.98
2022-12-11T09:34:08.951Z,30.08
2022-12-11T09:36:39.069Z,28.13
2022-12-11T09:39:09.869Z,28.23
2022-12-11T09:41:55.288Z,28.67
2022-12-11T09:44:43.305Z,29.48
2022-12-11T09:47:34.459Z,32.13
2022-12-11T09:50:15.452Z,33.63
2022-12-11T09:53:28.697Z,34.65
2022-12-11T09:56:18.152Z,44.60
2022-12-11T09:59:04.674Z,43.67
2022-12-11T10:02:16.736Z,41.40
2022-12-11T10:05:16.309Z,47.20
2022-12-11T10:07:56.599Z,45.25
2022-12-11T10:10:41.975Z,39.38
2022-12-11T10:13:53.504Z,31.20
2022-12-11T10:16:52.889Z,34.45
2022-12-11T10:19:29.895Z,34.65
2022-12-11T10:21:58.743Z,30.75
2022-12-11T10:27:35.062Z,29.25
2022-12-11T10:30:15.168Z,27.02
2022-12-11T10:33:11.412Z,33.70
2022-12-11T10:35:57.688Z,32.60
2022-12-11T10:38:33.602Z,21.67
2022-12-11T10:41:12.251Z,25.77
2022-12-11T10:43:46.371Z,27.08
2022-12-11T10:46:24.859Z,24.70
2022-12-11T10:48:59.273Z,20.35
2022-12-11T10:51:36.174Z,22.88
2022-12-11T10:54:17.338Z,18.27
2022-12-11T10:56:49.128Z,26.17
2022-12-11T10:59:49.733Z,22.27
2022-12-11T11:02:26.508Z,23.73
2022-12-11T11:04:57.094Z,22.45
2022-12-11T11:07:31.443Z,24.88
2022-12-11T11:10:17.659Z,23.45
2022-12-11T11:12:50.342Z,22.35
2022-12-11T11:15:27.691Z,22.70
2022-12-11T11:18:11.506Z,18.85
2022-12-11T11:20:47.960Z,18.20
2022-12-11T11:23:18.573Z,17.42
2022-12-11T11:25:59.845Z,16.98
2022-12-11T11:28:42.648Z,18.05
2022-12-11T11:31:15.335Z,17.67
2022-12-11T11:34:15.611Z,18.42
2022-12-11T11:36:42.558Z,28.20
2022-12-11T11:39:35.868Z,17.10
2022-12-11T11:45:27.096Z,15.50
2022-12-11T11:48:26.182Z,16.02
2022-12-11T11:50:53.900Z,15.27
2022-12-11T11:53:37.420Z,14.30
2022-12-11T11:56:25.589Z,14.25
2022-12-11T11:59:18.909Z,16.38
2022-12-11T12:04:13.529Z,16.42
2022-12-11T12:06:58.718Z,13.20
2022-12-11T12:10:06.632Z,13.95
2022-12-11T12:12:48.728Z,13.15
2022-12-11T12:15:46.467Z,13.80
2022-12-11T12:18:34.603Z,15.82
2022-12-11T12:21:16.779Z,13.90
2022-12-11T12:24:11.615Z,11.98
2022-12-11T12:26:58.907Z,14.68
2022-12-11T12:29:37.865Z,15.00
2022-12-11T12:33:07.889Z,16.77
2022-12-11T12:35:50.451Z,17.77
2022-12-11T12:38:23.533Z,11.20
2022-12-11T12:41:27.084Z,14.15
2022-12-11T12:47:15.403Z,17.02
2022-12-11T12:49:51.304Z,29.25
2022-12-11T12:52:26.337Z,20.25
2022-12-11T12:55:15.338Z,15.27
2022-12-11T12:57:51.317Z,15.57
2022-12-11T13:00:44.940Z,17.35
2022-12-11T13:03:27.659Z,23.42
2022-12-11T13:06:05.428Z,21.48
2022-12-11T13:08:48.528Z,27.95
2022-12-11T13:13:54.943Z,20.77
2022-12-11T13:16:35.369Z,23.33
2022-12-11T13:19:02.471Z,14.05
2022-12-11T13:21:41.043Z,19.70
2022-12-11T13:24:26.373Z,23.52
2022-12-11T13:26:54.009Z,23.05
2022-12-11T13:29:39.306Z,25.17
2022-12-11T13:32:17.875Z,24.83
2022-12-11T13:34:59.881Z,30.27
2022-12-11T13:37:39.385Z,22.55
2022-12-11T13:40:17.439Z,20.83
2022-12-11T13:43:04.963Z,21.77
2022-12-11T13:45:53.426Z,22.17
2022-12-11T13:48:45.413Z,25.13
2022-12-11T13:51:22.803Z,32.03
2022-12-11T13:53:50.077Z,31.35
2022-12-11T13:56:21.244Z,28.52
2022-12-11T13:58:48.968Z,33.35
2022-12-11T14:01:29.196Z,28.48
2022-12-11T14:04:09.505Z,42.58
2022-12-11T14:06:38.872Z,32.05
2022-12-11T14:09:07.890Z,54.63
2022-12-11T14:11:38.957Z,27.38
2022-12-11T14:14:21.185Z,28.80
2022-12-11T14:16:52.779Z,30.80
2022-12-11T14:19:23.155Z,26.45
2022-12-11T14:22:25.527Z,28.67
2022-12-11T14:24:55.960Z,28.67
2022-12-11T14:27:24.353Z,20.60
2022-12-11T14:29:52.153Z,21.30
2022-12-11T14:32:40.125Z,24.98
2022-12-11T14:35:21.257Z,20.38
2022-12-11T14:37:48.447Z,20.02
2022-12-11T14:40:20.578Z,23.13
2022-12-11T14:42:59.992Z,28.60
2022-12-11T14:45:43.117Z,25.25
2022-12-11T14:48:24.972Z,42.97
2022-12-11T14:51:00.597Z,23.90
2022-12-11T14:53:40.463Z,21.73
2022-12-11T14:56:21.723Z,19.42
2022-12-11T14:58:59.911Z,25.40
2022-12-11T15:01:38.607Z,22.02
2022-12-11T15:04:14.699Z,18.05
2022-12-11T15:06:49.131Z,19.50
2022-12-11T15:09:38.357Z,22.77
2022-12-11T15:12:24.149Z,17.55
2022-12-11T15:15:00.789Z,34.92
2022-12-11T15:17:29.027Z,31.80
2022-12-11T15:20:20.555Z,24.85
2022-12-11T15:22:47.600Z,20.85
2022-12-11T15:25:27.856Z,23.05
2022-12-11T15:28:00.943Z,21.20
2022-12-11T15:30:34.815Z,19.52
2022-12-11T15:33:11.334Z,19.48
2022-12-11T15:49:13.203Z,31.65
2022-12-11T15:51:43.196Z,27.47
2022-12-11T15:54:10.529Z,23.60
2022-12-11T15:56:37.652Z,21.33
2022-12-11T15:59:07.200Z,20.23
2022-12-11T16:01:34.964Z,19.55
2022-12-11T16:04:05.243Z,20.63
2022-12-11T16:06:35.449Z,20.42
2022-12-11T16:09:04.100Z,18.15
2022-12-11T16:11:31.123Z,16.25
2022-12-11T16:13:58.925Z,21.35
2022-12-11T16:16:25.872Z,18.85
2022-12-11T16:18:52.866Z,16.60
2022-12-11T16:21:21.577Z,14.00
2022-12-11T16:23:49.081Z,20.52
2022-12-11T16:26:16.101Z,14.38
2022-12-11T16:28:43.926Z,15.00
2022-12-11T16:31:17.023Z,19.20
2022-12-11T16:33:45.797Z,23.15
2022-12-11T16:36:19.612Z,22.60
2022-12-11T16:38:53.559Z,23.48
2022-12-11T16:41:22.991Z,20.67
2022-12-11T16:43:50.951Z,22.95
2022-12-11T16:46:21.478Z,63.72
2022-12-11T16:48:49.399Z,55.35
2022-12-11T16:51:18.272Z,21.42
2022-12-11T16:53:46.200Z,19.70
2022-12-11T16:56:13.530Z,20.70
2022-12-11T16:58:40.865Z,31.02
2022-12-11T17:01:13.634Z,17.65
2022-12-11T17:03:42.062Z,16.52
2022-12-11T17:06:12.671Z,22.67
2022-12-11T17:08:42.691Z,25.13
2022-12-11T17:11:19.165Z,20.45
2022-12-11T17:13:46.522Z,19.42
2022-12-11T17:16:16.629Z,17.83
2022-12-11T17:18:44.219Z,20.75
2022-12-11T17:21:19.267Z,20.60
2022-12-11T17:23:46.792Z,21.40
2022-12-11T17:26:14.749Z,20.38
2022-12-11T17:28:42.034Z,21.25
2022-12-11T17:31:14.415Z,20.35
2022-12-11T17:33:41.829Z,26.08
2022-12-11T17:36:13.347Z,20.48
2022-12-11T17:38:40.719Z,23.50
2022-12-11T17:41:14.255Z,22.25
2022-12-11T17:43:45.490Z,22.95
2022-12-11T17:46:12.938Z,22.40
2022-12-11T17:48:40.434Z,27.80
2022-12-11T17:51:12.063Z,26.25
2022-12-11T17:53:40.157Z,24.95
2022-12-11T17:56:08.991Z,25.02
2022-12-11T17:58:36.584Z,25.15
2022-12-11T18:01:11.729Z,29.58
2022-12-11T18:03:39.750Z,24.83
2022-12-11T18:06:12.732Z,19.67
2022-12-11T18:11:19.464Z,22.90
2022-12-11T18:13:47.379Z,19.42
2022-12-11T18:16:24.439Z,19.00
2022-12-11T18:18:52.981Z,20.70
2022-12-11T18:21:26.941Z,18.67
2022-12-11T18:23:54.430Z,15.73
2022-12-11T18:26:22.067Z,19.52
2022-12-11T18:28:52.017Z,19.70
2022-12-11T18:31:20.984Z,19.60
2022-12-11T18:33:48.726Z,15.15
2022-12-11T18:36:23.036Z,18.23
2022-12-11T18:38:51.136Z,14.70
2022-12-11T18:41:19.943Z,18.60
2022-12-11T18:43:47.314Z,17.80
2022-12-11T18:46:18.887Z,18.83
2022-12-11T18:48:48.108Z,17.23
2022-12-11T18:51:24.785Z,16.92
2022-12-11T18:53:53.593Z,17.55
2022-12-11T18:56:22.295Z,16.60
2022-12-11T18:58:50.927Z,15.07
2022-12-11T19:01:24.932Z,16.95
2022-12-11T19:04:02.686Z,13.82
2022-12-11T19:06:33.354Z,16.17
2022-12-11T19:09:00.635Z,15.20
2022-12-11T19:11:30.221Z,16.00
2022-12-11T19:13:58.511Z,20.65
2022-12-11T19:16:34.879Z,19.38
2022-12-11T19:30:25.589Z,15.15
2022-12-11T19:32:52.707Z,16.25
2022-12-11T19:35:21.856Z,14.88
2022-12-11T19:37:48.873Z,13.57
2022-12-11T19:40:16.813Z,18.52
2022-12-11T19:42:49.309Z,14.77
2022-12-11T19:45:17.421Z,19.52
2022-12-11T19:47:47.872Z,15.57
2022-12-11T19:50:15.235Z,13.18
2022-12-11T19:52:46.155Z,12.55
2022-12-11T19:55:16.124Z,17.83
2022-12-11T19:57:45.397Z,15.95
2022-12-11T20:00:13.877Z,13.88
2022-12-11T20:02:40.979Z,12.13
2022-12-11T20:05:09.620Z,13.52
2022-12-11T20:07:39.222Z,11.23
2022-12-11T20:10:07.394Z,12.65
2022-12-11T20:12:34.479Z,10.57
2022-12-11T20:15:01.636Z,11.95
2022-12-11T20:17:28.829Z,12.43
2022-12-11T20:19:55.867Z,13.98
2022-12-11T20:22:23.012Z,13.60
2022-12-11T20:24:50.080Z,16.15
2022-12-11T20:27:20.390Z,16.23
2022-12-11T20:29:47.780Z,17.38
2022-12-11T20:32:14.922Z,15.25
2022-12-11T20:34:42.825Z,13.77
2022-12-11T20:37:10.003Z,13.23
2022-12-11T20:39:38.601Z,13.80
2022-12-11T20:42:06.459Z,14.35
2022-12-11T20:44:38.207Z,12.80
2022-12-11T20:47:11.261Z,9.00
2022-12-11T20:49:40.645Z,12.25
2022-12-11T20:52:07.864Z,13.00
2022-12-11T20:54:34.843Z,10.68
2022-12-11T20:57:02.510Z,12.00
2022-12-11T20:59:29.630Z,12.38
2022-12-11T21:01:57.105Z,10.85
2022-12-11T21:04:24.669Z,12.25
2022-12-11T21:06:58.259Z,9.55
2022-12-11T21:09:26.807Z,9.90
2022-12-11T21:11:54.106Z,9.65
2022-12-11T21:14:21.162Z,12.00
2022-12-11T21:16:48.306Z,11.75
2022-12-11T21:19:17.185Z,12.45
2022-12-11T21:21:45.380Z,12.38
2022-12-11T21:24:21.279Z,11.10
2022-12-11T21:26:49.810Z,8.85
2022-12-11T21:29:17.560Z,9.75
2022-12-11T21:31:45.786Z,8.68
2022-12-11T21:34:13.993Z,8.10
2022-12-11T21:36:41.094Z,6.60
2022-12-11T21:39:08.259Z,8.05
2022-12-11T21:41:35.331Z,8.30
2022-12-11T21:46:49.524Z,9.45
2022-12-11T21:49:16.699Z,10.52
2022-12-11T21:51:47.160Z,16.05
2022-12-11T21:54:18.415Z,10.50
2022-12-11T21:56:46.550Z,8.80
2022-12-11T21:59:14.261Z,10.32
2022-12-11T22:01:45.836Z,11.30
2022-12-11T22:04:14.830Z,8.85
2022-12-11T22:06:43.444Z,9.55
2022-12-11T22:09:12.566Z,13.35
2022-12-11T22:11:40.879Z,12.75
2022-12-11T22:14:11.438Z,14.15
2022-12-11T22:16:38.592Z,15.60
2022-12-11T22:19:05.559Z,13.30
2022-12-11T22:21:32.596Z,12.38
2022-12-11T22:23:59.943Z,13.55
2022-12-11T22:26:28.660Z,14.00
2022-12-11T22:28:57.154Z,13.30
2022-12-11T22:31:27.277Z,12.40
2022-12-11T22:33:55.573Z,12.30
2022-12-11T22:36:25.470Z,12.30
2022-12-11T22:38:52.601Z,11.32
2022-12-11T22:41:32.285Z,11.70
2022-12-11T22:44:00.075Z,11.90
2022-12-11T22:46:30.208Z,12.15
2022-12-11T22:48:58.355Z,9.98
2022-12-11T22:51:25.319Z,10.23
2022-12-11T22:53:52.342Z,11.27
2022-12-11T22:56:19.564Z,11.18
2022-12-11T22:58:46.548Z,9.77
2022-12-11T23:01:22.489Z,11.38
2022-12-11T23:03:50.192Z,10.23
2022-12-11T23:06:20.930Z,9.95
2022-12-11T23:21:44.441Z,9.73
2022-12-11T23:24:12.333Z,8.23
2022-12-11T23:26:39.919Z,10.90
2022-12-11T23:29:08.320Z,11.02
2022-12-11T23:31:35.702Z,13.40
2022-12-11T23:34:02.737Z,8.60
2022-12-11T23:36:30.839Z,9.98
2022-12-11T23:38:57.770Z,9.48
2022-12-11T23:41:25.261Z,9.55
2022-12-11T23:43:52.375Z,12.10
2022-12-11T23:46:23.489Z,8.95
2022-12-11T23:48:52.211Z,8.57
2022-12-11T23:51:21.403Z,9.63
2022-12-11T23:53:48.754Z,9.60
2022-12-11T23:56:26.985Z,8.10
2022-12-11T23:58:54.950Z,9.55
